KOJC/OJC METAR and TAF weather

Enter ICAO airport designator
Station Type Date Time Source
KOJC METAR 2020/04/07 06:53 UTC NOAA

KOJC 070653Z AUTO 21009KT 10SM CLR 16/15 A2983 RMK AO2 SLP094 T01610150


Station Type Date Time Source
KOJC Decoded METAR 2020/04/07 06:53 UTC NOAA

OLATHE JOHNSON CO EXECUTIVE, KS, United States (KOJC) 38-50N 94-44W 326M
Apr 07, 2020 - 02:53 AM EDT / 2020.04.07 0653 UTC
Wind: from the SSW (210 degrees) at 10 MPH (9 KT):0
Visibility: 10 mile(s):0
Sky conditions: clear
Temperature: 61.0 F (16.1 C)
Dew Point: 59.0 F (15.0 C)
Relative Humidity: 93%
Pressure (altimeter): 29.83 in. Hg (1010 hPa)
ob: KOJC 070653Z AUTO 21009KT 10SM CLR 16/15 A2983 RMK AO2 SLP094 T01610150
cycle: 7

Station Type Date Time Source
KOJC TAF UTC NOAA

Error!

Example: see airport list